Lac Du Bonnet, Canada
Current Conditions -  °F | °C
As of 3:00 AM on Saturday 20 Dec 2014 (Local Time) from CYWG Reporting Station
Haze Haze  
Wind Chill: 27°   Ceiling: 900
Heat Index: 27°   Visibility: 4mi
Dew Point: 23°   Wind: 2mph
Humidity: 86%   Direction: 210°SSW
Pressure: 30.02"   Gusts: NA
Location:  50.27°N, 96.05°W
Report Text: CYWG 200900Z 21002KT 4SM BR OVC009 M03/M05 A3002 RMK ST8 SLP182
Loading
Personal Weather Stations






























Interactive Weather Map New forecast layout! Learn more

10-Day Weather Forecast

Advertisements
Track Severe Weather on mobile